Time;durP1;ratioP1;P1;durP2;ratioP2;P2;SDS_P1;SDS_P2;PMS_P1;PMS_P2;Temp;Humidity;BMP_temperature;BMP_pressure;BME280_temperature;BME280_humidity;BME280_pressure;Samples;Min_cycle;Max_cycle;Signal;HPM_P1;HPM_P2
2022/12/25 00:01:12;;;;;;;0.20;0.20;;;;;;;6.70;100.00;96490.56;4964356;28;20343;-72
2022/12/25 00:03:58;;;;;;;0.17;0.17;;;;;;;6.63;100.00;96484.50;4962260;28;20538;-72
2022/12/25 00:06:44;;;;;;;0.20;0.20;;;;;;;6.64;100.00;96486.94;4964218;28;20065;-70
2022/12/25 00:09:30;;;;;;;0.10;0.10;;;;;;;6.60;100.00;96484.94;4974421;28;20751;-72
2022/12/25 00:12:18;;;;;;;0.20;0.20;;;;;;;6.67;100.00;96496.31;4960647;28;20041;-72
2022/12/25 00:15:05;;;;;;;0.13;0.13;;;;;;;6.77;100.00;96498.44;4964504;28;20064;-71
2022/12/25 00:17:50;;;;;;;0.10;0.10;;;;;;;6.76;100.00;96502.94;4964289;28;20925;-71
2022/12/25 00:20:36;;;;;;;0.20;0.20;;;;;;;6.78;100.00;96500.88;4963100;28;20281;-73
2022/12/25 00:23:22;;;;;;;0.10;0.10;;;;;;;6.83;100.00;96508.19;4963192;28;20038;-70
2022/12/25 00:26:11;;;;;;;0.20;0.20;;;;;;;6.94;100.00;96502.13;4964051;28;20767;-70
2022/12/25 00:28:57;;;;;;;0.13;0.13;;;;;;;7.01;100.00;96496.72;4962230;28;20046;-71
2022/12/25 00:31:43;;;;;;;0.15;0.15;;;;;;;6.98;100.00;96514.75;4963590;28;20437;-70
2022/12/25 00:34:29;;;;;;;0.10;0.10;;;;;;;7.01;100.00;96523.31;4965236;28;20492;-72
2022/12/25 00:37:14;;;;;;;0.20;0.20;;;;;;;6.98;100.00;96513.94;4960517;28;20038;-72
2022/12/25 00:40:00;;;;;;;0.17;0.17;;;;;;;7.02;100.00;96515.13;4963610;28;20871;-69
2022/12/25 00:42:48;;;;;;;0.10;0.10;;;;;;;6.98;100.00;96514.75;4963776;28;20199;-71
2022/12/25 00:45:34;;;;;;;0.10;0.10;;;;;;;7.09;100.00;96523.81;4962109;28;20416;-74
2022/12/25 00:48:20;;;;;;;0.20;0.20;;;;;;;7.17;100.00;96522.72;4960919;28;20068;-70
2022/12/25 00:51:09;;;;;;;0.10;0.10;;;;;;;7.17;100.00;96517.38;4976239;28;20038;-72
2022/12/25 00:53:55;;;;;;;0.20;0.20;;;;;;;7.07;100.00;96527.72;4964575;28;20049;-70
2022/12/25 00:56:41;;;;;;;0.20;0.20;;;;;;;7.07;100.00;96525.06;4962274;28;20038;-73
2022/12/25 00:59:30;;;;;;;0.20;0.20;;;;;;;7.03;100.00;96524.72;4962232;28;20038;-72
2022/12/25 01:02:22;;;;;;;0.20;0.20;;;;;;;7.04;100.00;96522.88;4964911;28;20240;-73
2022/12/25 01:05:09;;;;;;;0.13;0.13;;;;;;;6.93;100.00;96524.44;4965663;28;20136;-72
2022/12/25 01:07:55;;;;;;;0.20;0.20;;;;;;;6.89;100.00;96516.09;4964649;28;20533;-70
2022/12/25 01:10:40;;;;;;;0.20;0.20;;;;;;;6.86;100.00;96519.19;4965308;28;20351;-73
2022/12/25 01:13:27;;;;;;;0.20;0.20;;;;;;;6.88;100.00;96514.47;4962644;28;20046;-72
2022/12/25 01:16:15;;;;;;;0.17;0.17;;;;;;;6.84;100.00;96515.13;4965872;28;20053;-74
2022/12/25 01:19:00;;;;;;;0.20;0.20;;;;;;;6.91;100.00;96529.97;4961855;28;20065;-73
2022/12/25 01:21:46;;;;;;;0.20;0.20;;;;;;;6.88;100.00;96530.44;4964254;28;20081;-74
2022/12/25 01:24:32;;;;;;;0.20;0.20;;;;;;;6.87;100.00;96512.03;4963058;28;20069;-71
2022/12/25 01:27:18;;;;;;;0.20;0.20;;;;;;;6.84;100.00;96513.28;4963397;28;20034;-71
2022/12/25 01:30:05;;;;;;;0.20;0.20;;;;;;;6.83;100.00;96516.16;4962173;28;20043;-70
2022/12/25 01:32:51;;;;;;;0.13;0.13;;;;;;;6.78;100.00;96529.34;4963431;28;20372;-72
2022/12/25 01:35:38;;;;;;;0.10;0.10;;;;;;;6.77;100.00;96525.03;4961603;28;20089;-71
2022/12/25 01:38:24;;;;;;;0.20;0.20;;;;;;;6.79;100.00;96526.44;4963322;28;20120;-70
2022/12/25 01:41:11;;;;;;;0.15;0.15;;;;;;;6.84;100.00;96525.75;4969437;28;20084;-71
2022/12/25 01:44:27;;;;;;;0.20;0.20;;;;;;;6.83;100.00;96524.94;4966832;28;20050;-72
2022/12/25 01:47:17;;;;;;;0.10;0.10;;;;;;;6.79;100.00;96525.63;4965324;28;20042;-73
2022/12/25 01:50:06;;;;;;;0.10;0.10;;;;;;;6.76;100.00;96524.22;4966718;28;20038;-72
2022/12/25 01:52:53;;;;;;;0.17;0.17;;;;;;;6.72;100.00;96514.25;4966018;28;20034;-74
2022/12/25 01:55:41;;;;;;;0.10;0.10;;;;;;;6.73;100.00;96516.69;4965809;28;20038;-73
2022/12/25 01:58:28;;;;;;;0.10;0.10;;;;;;;6.67;100.00;96521.03;4967888;28;20522;-72
2022/12/25 02:01:13;;;;;;;0.10;0.10;;;;;;;6.70;100.00;96515.28;4959604;28;20479;-73
2022/12/25 02:04:13;;;;;;;0.13;0.13;;;;;;;6.66;100.00;96510.63;4946388;28;20039;-71
2022/12/25 02:06:59;;;;;;;0.10;0.10;;;;;;;6.69;100.00;96515.50;4947362;28;20574;-72
2022/12/25 02:09:46;;;;;;;0.15;0.15;;;;;;;6.71;100.00;96513.44;4947747;28;20035;-71
2022/12/25 02:12:33;;;;;;;0.10;0.10;;;;;;;6.66;100.00;96506.13;4946003;28;20507;-74
2022/12/25 02:15:25;;;;;;;0.10;0.10;;;;;;;6.62;100.00;96499.66;4948430;28;20294;-73
2022/12/25 02:18:19;;;;;;;0.20;0.20;;;;;;;6.66;100.00;96495.50;4946172;28;20051;-74
2022/12/25 02:21:30;;;;;;;0.20;0.20;;;;;;;6.69;100.00;96504.84;4947861;28;20050;-71
2022/12/25 02:24:19;;;;;;;0.20;0.20;;;;;;;6.69;100.00;96495.06;4945903;28;20057;-73
2022/12/25 02:27:36;;;;;;;0.10;0.10;;;;;;;6.67;100.00;96497.09;4947224;28;20064;-73
2022/12/25 02:30:22;;;;;;;0.10;0.10;;;;;;;6.67;100.00;96496.31;4949465;28;20576;-73
2022/12/25 02:36:39;;;;;;;0.10;0.10;;;;;;;6.77;100.00;96509.06;4962935;28;20350;-73
2022/12/25 03:07:58;;;;;;;0.10;0.10;;;;;;;6.73;100.00;96522.00;4944890;28;20472;-70
2022/12/25 03:16:49;;;;;;;0.20;0.20;;;;;;;6.70;100.00;96522.47;4945176;28;20053;-73
2022/12/25 03:17:06;;;;;;;0.10;0.10;;;;;;;6.70;100.00;96503.84;4947040;28;20465;-72
2022/12/25 03:29:06;;;;;;;0.10;0.10;;;;;;;6.53;100.00;96490.31;4947371;28;20105;-73
2022/12/25 03:32:10;;;;;;;0.10;0.10;;;;;;;6.60;100.00;96498.22;4945917;28;20209;-73
2022/12/25 03:35:24;;;;;;;0.10;0.10;;;;;;;6.61;100.00;96491.88;4946049;28;20045;-73
2022/12/25 04:37:36;;;;;;;0.20;0.20;;;;;;;6.70;100.00;96451.47;4942111;28;20042;-70
2022/12/25 04:40:22;;;;;;;0.20;0.20;;;;;;;6.69;100.00;96457.00;4946251;28;20513;-71
2022/12/25 04:43:08;;;;;;;0.10;0.10;;;;;;;6.66;100.00;96458.25;4946463;28;20161;-71
2022/12/25 04:45:58;;;;;;;0.10;0.10;;;;;;;6.66;100.00;96457.44;4944319;28;20975;-74
2022/12/25 04:48:44;;;;;;;0.22;0.20;;;;;;;6.59;100.00;96472.66;4943330;28;20486;-73
2022/12/25 04:51:30;;;;;;;0.10;0.10;;;;;;;6.67;100.00;96475.03;4944086;28;20558;-73
2022/12/25 04:54:16;;;;;;;0.22;0.20;;;;;;;6.62;100.00;96472.25;4941867;28;20106;-73
2022/12/25 04:57:02;;;;;;;0.20;0.20;;;;;;;6.56;100.00;96457.19;4957902;28;20101;-73
2022/12/25 04:59:47;;;;;;;0.30;0.20;;;;;;;6.56;100.00;96473.94;4943820;28;20581;-73
2022/12/25 05:02:33;;;;;;;0.17;0.17;;;;;;;6.60;100.00;96468.97;4942762;28;20054;-74
2022/12/25 05:05:19;;;;;;;0.10;0.10;;;;;;;6.61;100.00;96465.28;4945550;28;20071;-73
2022/12/25 05:08:05;;;;;;;0.28;0.20;;;;;;;6.61;100.00;96465.28;4944646;28;20042;-72
2022/12/25 05:10:51;;;;;;;0.30;0.20;;;;;;;6.69;100.00;96459.66;4945510;28;20611;-74
2022/12/25 05:13:37;;;;;;;0.20;0.20;;;;;;;6.68;100.00;96468.66;4943760;28;20047;-73
2022/12/25 05:16:25;;;;;;;0.20;0.20;;;;;;;6.61;100.00;96466.09;4946235;28;20042;-73
2022/12/25 05:19:10;;;;;;;0.22;0.20;;;;;;;6.58;100.00;96477.19;4943775;28;20047;-73
2022/12/25 05:21:56;;;;;;;0.20;0.20;;;;;;;6.58;100.00;96473.72;4945752;28;20487;-73
2022/12/25 05:24:42;;;;;;;0.20;0.20;;;;;;;6.54;100.00;96464.56;4946964;28;20073;-72
2022/12/25 05:27:28;;;;;;;0.20;0.20;;;;;;;6.48;100.00;96468.91;4944216;28;20035;-73
2022/12/25 05:30:14;;;;;;;0.13;0.13;;;;;;;6.47;100.00;96459.31;4945980;28;20272;-73
2022/12/25 05:33:00;;;;;;;0.10;0.10;;;;;;;6.47;100.00;96447.88;4963465;28;20297;-71
2022/12/25 05:35:46;;;;;;;0.15;0.15;;;;;;;6.44;100.00;96457.09;4964735;28;20144;-71
2022/12/25 05:38:32;;;;;;;0.20;0.20;;;;;;;6.41;100.00;96446.91;4962765;28;20050;-71
2022/12/25 05:41:18;;;;;;;0.17;0.17;;;;;;;6.48;100.00;96441.53;4966072;28;20046;-74
2022/12/25 05:44:04;;;;;;;0.10;0.10;;;;;;;6.41;100.00;96423.00;4963703;28;20100;-71
2022/12/25 05:46:50;;;;;;;0.20;0.20;;;;;;;6.49;100.00;96429.84;4966164;28;20096;-71
2022/12/25 05:49:36;;;;;;;0.15;0.15;;;;;;;6.45;100.00;96434.78;4964098;28;20322;-71
2022/12/25 05:52:22;;;;;;;0.10;0.10;;;;;;;6.45;100.00;96444.63;4963599;28;20042;-72
2022/12/25 05:55:08;;;;;;;0.10;0.10;;;;;;;6.42;100.00;96443.22;4965323;28;20437;-72
2022/12/25 05:57:54;;;;;;;0.10;0.10;;;;;;;6.41;100.00;96438.94;4963950;28;20113;-73
2022/12/25 06:00:40;;;;;;;0.10;0.10;;;;;;;6.45;100.00;96431.31;4959560;28;20324;-73
2022/12/25 06:03:25;;;;;;;0.13;0.13;;;;;;;6.41;100.00;96423.81;4945175;28;20077;-70
2022/12/25 06:06:12;;;;;;;0.20;0.20;;;;;;;6.42;100.00;96419.28;4943463;28;20074;-72
2022/12/25 06:08:58;;;;;;;0.15;0.15;;;;;;;6.35;100.00;96418.56;4943167;28;20443;-72
2022/12/25 06:11:44;;;;;;;0.20;0.20;;;;;;;6.34;100.00;96411.63;4944364;28;20038;-73
2022/12/25 06:14:30;;;;;;;0.10;0.10;;;;;;;6.36;100.00;96405.03;4942037;28;20054;-73
2022/12/25 06:17:16;;;;;;;0.10;0.10;;;;;;;6.38;100.00;96410.97;4943448;28;20039;-74
2022/12/25 06:20:03;;;;;;;0.10;0.10;;;;;;;6.41;100.00;96410.50;4956997;28;20039;-74
2022/12/25 06:22:48;;;;;;;0.20;0.20;;;;;;;6.39;100.00;96414.44;4943064;28;20466;-72
2022/12/25 06:25:38;;;;;;;0.10;0.10;;;;;;;6.37;100.00;96421.81;4944605;28;20039;-71
2022/12/25 06:28:23;;;;;;;0.10;0.10;;;;;;;6.34;100.00;96422.25;4948556;28;20045;-72
2022/12/25 06:31:14;;;;;;;0.20;0.20;;;;;;;6.41;100.00;96405.19;4947664;28;20196;-74
2022/12/25 06:34:00;;;;;;;0.20;0.20;;;;;;;6.36;100.00;96406.88;4957899;28;20407;-73
2022/12/25 06:36:46;;;;;;;0.17;0.17;;;;;;;6.39;100.00;96403.81;4948304;28;20579;-75
2022/12/25 06:39:32;;;;;;;0.20;0.20;;;;;;;6.43;100.00;96397.00;4946940;28;20506;-71
2022/12/25 06:42:18;;;;;;;0.13;0.13;;;;;;;6.45;100.00;96400.22;4947435;28;20061;-75
2022/12/25 06:45:04;;;;;;;0.20;0.20;;;;;;;6.45;100.00;96412.72;4959319;28;20149;-72
2022/12/25 06:47:50;;;;;;;0.20;0.20;;;;;;;6.40;100.00;96411.56;4945833;28;20047;-72
2022/12/25 06:50:42;;;;;;;0.63;0.32;;;;;;;6.34;100.00;96412.44;4947514;28;20510;-73
2022/12/25 06:53:29;;;;;;;0.25;0.20;;;;;;;6.32;100.00;96406.53;4946656;28;20763;-74
2022/12/25 06:56:17;;;;;;;0.75;0.40;;;;;;;6.36;100.00;96404.22;4949079;28;20096;-75
2022/12/25 06:59:08;;;;;;;0.45;0.30;;;;;;;6.36;100.00;96406.88;4946620;28;20039;-72
2022/12/25 07:01:56;;;;;;;0.80;0.50;;;;;;;6.38;100.00;96402.16;4957064;28;20097;-74
2022/12/25 07:04:42;;;;;;;0.90;0.47;;;;;;;6.36;100.00;96397.06;4967633;28;20277;-74
2022/12/25 07:07:28;;;;;;;1.08;0.40;;;;;;;6.35;100.00;96391.97;4965940;28;20334;-74
2022/12/25 07:10:13;;;;;;;0.30;0.30;;;;;;;6.29;100.00;96376.91;4968743;28;20200;-75
2022/12/25 07:12:59;;;;;;;0.30;0.30;;;;;;;6.25;100.00;96384.53;4969627;28;20085;-71
2022/12/25 07:15:45;;;;;;;0.50;0.30;;;;;;;6.28;100.00;96381.44;4970289;28;20350;-72
2022/12/25 07:18:32;;;;;;;0.80;0.40;;;;;;;6.24;100.00;96369.63;4967081;28;20231;-74
2022/12/25 07:21:19;;;;;;;0.63;0.30;;;;;;;6.25;100.00;96365.94;4968314;28;20482;-75
2022/12/25 07:24:06;;;;;;;0.32;0.20;;;;;;;6.31;100.00;96377.53;4964408;28;20065;-72
2022/12/25 07:26:51;;;;;;;0.20;0.20;;;;;;;6.30;100.00;96366.09;4968207;28;20501;-74
2022/12/25 07:29:37;;;;;;;0.13;0.13;;;;;;;6.25;100.00;96363.28;4966649;28;20042;-74
2022/12/25 07:32:23;;;;;;;0.10;0.10;;;;;;;6.26;100.00;96350.81;4948957;28;20078;-73
2022/12/25 07:35:09;;;;;;;0.10;0.10;;;;;;;6.23;100.00;96345.94;4948815;28;20330;-75
2022/12/25 07:37:55;;;;;;;0.20;0.20;;;;;;;6.26;100.00;96358.78;4945700;28;20074;-74
2022/12/25 07:40:44;;;;;;;0.10;0.10;;;;;;;6.28;100.00;96360.16;4948297;28;20145;-72
2022/12/25 07:43:30;;;;;;;0.10;0.10;;;;;;;6.23;100.00;96345.94;4948628;28;20203;-74
2022/12/25 07:46:16;;;;;;;0.20;0.20;;;;;;;6.18;100.00;96349.25;4947324;28;20042;-74
2022/12/25 07:49:02;;;;;;;0.10;0.10;;;;;;;6.20;100.00;96352.50;4948153;28;20035;-72
2022/12/25 07:51:48;;;;;;;0.17;0.17;;;;;;;6.23;100.00;96352.06;4947361;28;20134;-72
2022/12/25 07:54:33;;;;;;;0.20;0.20;;;;;;;6.25;100.00;96360.63;4947475;28;20428;-73
2022/12/25 07:57:19;;;;;;;0.30;0.20;;;;;;;6.27;100.00;96355.88;4959725;28;20042;-74
2022/12/25 08:00:06;;;;;;;0.20;0.20;;;;;;;6.29;100.00;96345.03;4945860;28;20409;-74
2022/12/25 08:02:58;;;;;;;0.10;0.10;;;;;;;6.29;100.00;96356.47;4974015;28;20098;-72
2022/12/25 08:05:44;;;;;;;0.13;0.13;;;;;;;6.30;100.00;96368.75;4965844;28;20306;-73
2022/12/25 08:08:31;;;;;;;0.10;0.10;;;;;;;6.29;100.00;96368.94;4966687;28;20031;-75
2022/12/25 08:11:17;;;;;;;0.20;0.20;;;;;;;6.27;100.00;96357.75;4967514;28;20042;-75
2022/12/25 08:14:07;;;;;;;0.20;0.20;;;;;;;6.21;100.00;96337.38;4967596;28;20598;-73
2022/12/25 08:16:54;;;;;;;0.10;0.10;;;;;;;6.20;100.00;96325.94;4965852;28;20391;-72
2022/12/25 08:19:39;;;;;;;0.20;0.20;;;;;;;6.26;100.00;96335.66;4967628;28;20586;-73
2022/12/25 08:22:25;;;;;;;0.20;0.20;;;;;;;6.21;100.00;96345.34;4963036;28;20368;-71
2022/12/25 08:25:14;;;;;;;0.20;0.20;;;;;;;6.19;100.00;96334.94;4967015;28;20795;-70
2022/12/25 08:28:00;;;;;;;0.60;0.40;;;;;;;6.20;100.00;96339.22;4963606;28;20469;-71
2022/12/25 08:30:46;;;;;;;0.13;0.13;;;;;;;6.24;100.00;96335.09;4959722;28;20069;-73
2022/12/25 08:33:32;;;;;;;0.10;0.10;;;;;;;6.28;100.00;96322.16;4946987;28;20450;-72
2022/12/25 08:36:19;;;;;;;0.10;0.10;;;;;;;6.29;100.00;96307.81;4945707;28;20457;-72
2022/12/25 08:39:05;;;;;;;0.20;0.20;;;;;;;6.33;100.00;96319.66;4941745;28;20047;-75
2022/12/25 08:41:50;;;;;;;0.20;0.20;;;;;;;6.35;100.00;96326.34;4945818;28;20042;-74
2022/12/25 08:44:36;;;;;;;0.10;0.10;;;;;;;6.30;100.00;96326.22;4946892;28;20376;-72
2022/12/25 08:47:22;;;;;;;0.22;0.20;;;;;;;6.33;100.00;96325.78;4946537;28;20166;-74
2022/12/25 08:50:09;;;;;;;0.20;0.20;;;;;;;6.32;100.00;96334.78;4949596;28;20583;-72
2022/12/25 08:52:55;;;;;;;0.13;0.13;;;;;;;6.33;100.00;96339.06;4947077;28;20827;-74
2022/12/25 08:55:41;;;;;;;0.25;0.20;;;;;;;6.23;100.00;96340.63;4948393;28;20141;-73
2022/12/25 08:58:27;;;;;;;0.43;0.30;;;;;;;6.33;100.00;96328.44;4958768;28;20509;-72
2022/12/25 09:01:13;;;;;;;0.50;0.30;;;;;;;6.37;100.00;96326.13;4947146;28;20066;-74
2022/12/25 09:03:59;;;;;;;0.63;0.32;;;;;;;6.37;100.00;96336.75;4946561;28;20122;-71
2022/12/25 09:06:45;;;;;;;0.20;0.20;;;;;;;6.34;100.00;96334.56;4946102;28;20077;-72
2022/12/25 09:09:30;;;;;;;0.20;0.20;;;;;;;6.36;100.00;96330.63;4947384;28;20046;-75
2022/12/25 09:12:16;;;;;;;0.20;0.20;;;;;;;6.34;100.00;96346.00;4946999;28;20090;-75
2022/12/25 09:15:03;;;;;;;0.70;0.38;;;;;;;6.36;100.00;96330.63;4946912;28;20154;-73
2022/12/25 09:17:49;;;;;;;0.40;0.28;;;;;;;6.35;100.00;96329.00;4946544;28;20077;-73
2022/12/25 09:20:35;;;;;;;0.20;0.20;;;;;;;6.32;100.00;96326.81;4947843;28;20534;-75
2022/12/25 09:23:21;;;;;;;0.10;0.10;;;;;;;6.36;100.00;96327.16;4945778;28;20046;-74
2022/12/25 09:26:10;;;;;;;0.22;0.22;;;;;;;6.34;100.00;96314.09;4945550;28;20164;-75
2022/12/25 09:28:56;;;;;;;0.22;0.20;;;;;;;6.38;100.00;96320.59;4943563;28;20034;-74
2022/12/25 09:31:42;;;;;;;0.20;0.20;;;;;;;6.40;100.00;96334.47;4946056;28;20326;-75
2022/12/25 09:34:28;;;;;;;0.32;0.20;;;;;;;6.35;100.00;96334.31;4946092;28;20046;-72
2022/12/25 09:37:14;;;;;;;0.20;0.20;;;;;;;6.39;100.00;96330.19;4941227;28;20133;-75
2022/12/25 09:40:00;;;;;;;0.17;0.17;;;;;;;6.36;100.00;96327.97;4933808;28;20046;-71
2022/12/25 09:42:48;;;;;;;0.30;0.22;;;;;;;6.40;100.00;96315.88;4959995;28;20055;-72
2022/12/25 09:45:37;;;;;;;0.20;0.20;;;;;;;6.47;100.00;96291.03;4946936;28;20042;-72
2022/12/25 09:48:24;;;;;;;0.20;0.20;;;;;;;6.51;100.00;96289.53;4944707;28;20130;-74
2022/12/25 09:51:15;;;;;;;0.10;0.10;;;;;;;6.56;100.00;96271.06;4946314;28;20146;-75
2022/12/25 09:54:15;;;;;;;0.20;0.20;;;;;;;6.74;100.00;96270.97;4945934;28;20325;-74
2022/12/25 09:57:01;;;;;;;0.10;0.10;;;;;;;6.69;100.00;96278.81;4940992;28;20078;-72
2022/12/25 09:59:47;;;;;;;0.10;0.10;;;;;;;6.69;100.00;96277.00;4946562;28;20815;-72
2022/12/25 10:02:46;;;;;;;0.10;0.10;;;;;;;6.73;100.00;96265.91;4948104;28;20604;-72
2022/12/25 10:05:43;;;;;;;0.13;0.13;;;;;;;6.73;100.00;96293.31;4950107;28;20034;-73
2022/12/25 10:09:01;;;;;;;0.13;0.13;;;;;;;6.72;100.00;96278.38;4946920;28;20034;-72
2022/12/25 10:11:56;;;;;;;0.10;0.10;;;;;;;6.76;100.00;96276.06;4949423;28;20039;-73
2022/12/25 10:15:07;;;;;;;0.20;0.20;;;;;;;6.72;100.00;96278.38;4948859;28;20221;-75
2022/12/25 10:18:05;;;;;;;0.22;0.20;;;;;;;6.71;100.00;96284.75;4948363;28;20066;-71
2022/12/25 10:20:59;;;;;;;0.20;0.20;;;;;;;6.66;100.00;96274.78;4949153;28;20336;-74
2022/12/25 10:24:05;;;;;;;0.20;0.20;;;;;;;6.64;100.00;96270.75;4948644;28;20038;-73
2022/12/25 10:26:54;;;;;;;0.28;0.20;;;;;;;6.72;100.00;96270.41;4948832;28;20160;-72
2022/12/25 10:29:41;;;;;;;0.35;0.30;;;;;;;6.71;100.00;96255.50;4948454;28;20043;-69
2022/12/25 10:32:27;;;;;;;0.45;0.22;;;;;;;6.73;100.00;96248.09;4947905;28;20338;-70
2022/12/25 10:35:15;;;;;;;0.45;0.28;;;;;;;6.75;100.00;96247.84;4946915;28;20055;-71
2022/12/25 10:38:08;;;;;;;0.63;0.35;;;;;;;6.77;100.00;96245.78;4946516;28;20097;-72
2022/12/25 10:41:15;;;;;;;0.45;0.30;;;;;;;6.77;100.00;96233.31;4949719;28;20149;-72
2022/12/25 10:44:14;;;;;;;0.40;0.22;;;;;;;6.82;100.00;96243.25;4950104;28;20043;-71
2022/12/25 10:47:02;;;;;;;0.45;0.30;;;;;;;6.73;100.00;96248.09;4946957;28;20054;-72
2022/12/25 10:49:48;;;;;;;0.60;0.40;;;;;;;6.70;100.00;96253.88;4959872;28;20158;-72
2022/12/25 10:52:50;;;;;;;0.73;0.40;;;;;;;6.72;100.00;96254.44;4947016;28;20209;-71
2022/12/25 10:55:36;;;;;;;0.73;0.40;;;;;;;6.75;100.00;96256.66;4949204;28;20055;-72
2022/12/25 10:58:21;;;;;;;0.85;0.40;;;;;;;6.77;100.00;96241.28;4949929;28;20507;-72
2022/12/25 11:01:07;;;;;;;0.60;0.40;;;;;;;6.77;100.00;96240.44;4958955;28;20373;-72
2022/12/25 11:03:56;;;;;;;0.85;0.40;;;;;;;6.82;100.00;96244.06;4968817;28;20375;-73
2022/12/25 11:06:42;;;;;;;0.38;0.20;;;;;;;6.80;100.00;96242.66;4968115;28;20216;-72
2022/12/25 11:09:28;;;;;;;0.47;0.30;;;;;;;6.86;100.00;96221.28;4982181;28;20060;-73
2022/12/25 11:12:19;;;;;;;0.73;0.40;;;;;;;6.90;100.00;96211.78;4967125;28;20101;-74
2022/12/25 11:15:45;;;;;;;0.57;0.30;;;;;;;6.97;100.00;96217.81;4969315;28;20046;-74
2022/12/25 11:18:50;;;;;;;0.60;0.40;;;;;;;6.95;100.00;96235.06;4969549;28;20368;-74
2022/12/25 11:21:38;;;;;;;0.85;0.50;;;;;;;7.02;100.00;96229.63;4969082;28;20837;-73
2022/12/25 11:24:29;;;;;;;0.90;0.50;;;;;;;6.98;100.00;96222.09;4964877;28;20145;-74
2022/12/25 11:27:29;;;;;;;1.70;0.88;;;;;;;6.96;100.00;96220.72;4967171;28;20581;-74
2022/12/25 11:30:15;;;;;;;0.98;0.50;;;;;;;7.08;100.00;96218.03;4966151;28;20353;-73
2022/12/25 11:33:10;;;;;;;0.98;0.60;;;;;;;7.09;100.00;96217.03;4949933;28;20087;-72
2022/12/25 11:35:59;;;;;;;1.38;0.73;;;;;;;7.08;100.00;96207.38;4946142;28;20637;-74
2022/12/25 11:38:45;;;;;;;0.80;0.50;;;;;;;7.06;100.00;96202.31;4946296;28;20043;-74
2022/12/25 11:41:34;;;;;;;0.98;0.50;;;;;;;7.19;100.00;96195.94;4945101;28;20176;-75
2022/12/25 11:44:42;;;;;;;1.65;0.77;;;;;;;7.21;100.00;96191.19;4605893;28;10000454;-75
2022/12/25 11:47:32;;;;;;;1.10;0.55;;;;;;;7.26;100.00;96154.06;4945469;28;20094;-73
2022/12/25 11:50:22;;;;;;;0.77;0.43;;;;;;;7.46;100.00;96122.50;4947532;28;20039;-74
2022/12/25 11:53:21;;;;;;;0.20;0.20;;;;;;;7.54;100.00;96122.13;4948199;28;20791;-73
2022/12/25 11:56:13;;;;;;;0.20;0.20;;;;;;;7.53;100.00;96133.81;4946669;28;20230;-74
2022/12/25 11:59:08;;;;;;;0.17;0.17;;;;;;;7.37;100.00;96136.41;4947211;28;20566;-75
2022/12/25 12:02:00;;;;;;;0.20;0.20;;;;;;;7.33;100.00;96109.47;4947088;28;20054;-72
2022/12/25 12:04:52;;;;;;;0.20;0.20;;;;;;;7.37;100.00;96126.59;4947373;28;20034;-71
2022/12/25 12:07:55;;;;;;;0.10;0.10;;;;;;;7.41;100.00;96116.28;4944341;28;20397;-73
2022/12/25 12:10:56;;;;;;;0.10;0.10;;;;;;;7.38;100.00;96111.41;4617448;28;10000594;-74
2022/12/25 12:13:56;;;;;;;0.20;0.20;;;;;;;7.36;100.00;96116.19;4945464;28;20507;-71
2022/12/25 12:16:42;;;;;;;0.10;0.10;;;;;;;7.27;100.00;96113.06;4945258;28;20540;-73
2022/12/25 12:19:30;;;;;;;0.20;0.20;;;;;;;7.25;100.00;96115.97;4946018;28;20530;-71
2022/12/25 12:22:23;;;;;;;0.10;0.10;;;;;;;7.26;100.00;96108.81;4944961;28;20049;-74
2022/12/25 12:25:16;;;;;;;0.13;0.13;;;;;;;7.33;100.00;96103.34;4944810;28;20073;-72
2022/12/25 12:28:02;;;;;;;0.20;0.20;;;;;;;7.29;100.00;96092.34;4946489;28;20208;-75
2022/12/25 12:31:09;;;;;;;0.10;0.10;;;;;;;7.29;100.00;96095.00;4951233;28;20049;-72
2022/12/25 12:33:58;;;;;;;0.10;0.10;;;;;;;7.36;100.00;96094.88;4966457;28;20038;-71
2022/12/25 12:36:44;;;;;;;0.20;0.20;;;;;;;7.38;100.00;96104.25;4965618;28;20030;-73
2022/12/25 12:39:37;;;;;;;0.10;0.10;;;;;;;7.38;100.00;96092.78;4964000;28;20460;-73
2022/12/25 12:42:31;;;;;;;0.10;0.10;;;;;;;7.42;100.00;96101.94;4963925;28;20046;-73
2022/12/25 12:45:33;;;;;;;0.20;0.20;;;;;;;7.44;100.00;96097.16;4966083;28;20112;-74
2022/12/25 12:48:25;;;;;;;0.15;0.15;;;;;;;7.42;100.00;96093.94;4964165;28;20268;-74
2022/12/25 12:51:13;;;;;;;0.10;0.10;;;;;;;7.51;100.00;96103.16;4964634;28;20050;-72
2022/12/25 12:54:24;;;;;;;0.20;0.20;;;;;;;7.53;100.00;96107.19;4964832;28;20467;-74
2022/12/25 12:57:28;;;;;;;0.13;0.13;;;;;;;7.56;100.00;96095.28;4965102;28;20186;-74
2022/12/25 13:00:20;;;;;;;0.10;0.10;;;;;;;7.56;100.00;96084.63;4964369;28;20038;-73
2022/12/25 13:03:34;;;;;;;0.30;0.30;;;;;;;7.73;100.00;96084.66;4947119;28;20534;-74
2022/12/25 13:06:32;;;;;;;0.20;0.20;;;;;;;7.69;100.00;96073.66;4947208;28;20125;-73
2022/12/25 13:09:39;;;;;;;0.20;0.20;;;;;;;7.72;100.00;96075.06;4947010;28;20089;-74
2022/12/25 13:12:26;;;;;;;0.20;0.20;;;;;;;7.79;100.00;96075.72;4943799;28;20252;-71
2022/12/25 13:15:13;;;;;;;0.20;0.20;;;;;;;7.76;100.00;96057.53;4945629;28;20093;-74
2022/12/25 13:18:06;;;;;;;0.10;0.10;;;;;;;7.88;100.00;96060.16;4945380;28;20042;-72
2022/12/25 13:20:59;;;;;;;0.20;0.20;;;;;;;7.90;100.00;96061.53;4946556;28;20050;-74
2022/12/25 13:23:58;;;;;;;0.10;0.10;;;;;;;7.78;100.00;96050.94;4945982;28;20402;-74
2022/12/25 13:26:44;;;;;;;0.20;0.20;;;;;;;7.80;100.00;96046.19;4945836;28;20046;-73
2022/12/25 13:29:37;;;;;;;0.10;0.10;;;;;;;7.81;100.00;96049.66;4944291;28;20258;-75
2022/12/25 13:32:27;;;;;;;0.10;0.10;;;;;;;7.87;100.00;96059.34;4944045;28;20074;-75
2022/12/25 13:35:15;;;;;;;0.20;0.20;;;;;;;7.79;100.00;96046.41;4943577;28;20506;-73
2022/12/25 13:38:01;;;;;;;0.10;0.10;;;;;;;7.88;100.00;96065.47;4946089;28;20555;-74
2022/12/25 13:43:58;;;;;;;0.20;0.20;;;;;;;7.76;100.00;96061.00;4946719;28;20038;-74
2022/12/25 13:46:44;;;;;;;0.10;0.10;;;;;;;7.83;100.00;96059.00;4947796;28;20055;-72
2022/12/25 13:49:30;;;;;;;0.13;0.13;;;;;;;7.95;100.00;96066.13;4946156;28;20047;-74
2022/12/25 13:52:31;;;;;;;0.13;0.13;;;;;;;7.98;100.00;96062.97;4946508;28;20043;-74
2022/12/25 13:55:40;;;;;;;0.17;0.17;;;;;;;7.95;100.00;96063.47;4946531;28;20101;-74
2022/12/25 13:58:30;;;;;;;0.20;0.20;;;;;;;7.95;100.00;96055.47;4946720;28;20053;-75
2022/12/25 14:01:17;;;;;;;0.10;0.10;;;;;;;7.94;100.00;96060.00;4947951;28;20527;-74
2022/12/25 14:04:03;;;;;;;0.20;0.20;;;;;;;7.93;100.00;96061.03;4947450;28;20050;-75
2022/12/25 14:06:51;;;;;;;0.13;0.13;;;;;;;7.93;100.00;96069.00;4942768;28;20050;-73
2022/12/25 14:09:38;;;;;;;0.10;0.10;;;;;;;7.90;100.00;96064.19;4945679;28;20619;-74
2022/12/25 14:12:27;;;;;;;0.10;0.10;;;;;;;7.90;100.00;96064.19;4949028;28;20494;-76
2022/12/25 14:15:18;;;;;;;0.10;0.10;;;;;;;7.99;100.00;96070.72;4945913;28;20719;-74
2022/12/25 14:18:04;;;;;;;0.20;0.20;;;;;;;8.02;100.00;96080.91;4944876;28;20126;-72
2022/12/25 14:21:06;;;;;;;0.20;0.20;;;;;;;8.07;100.00;96088.97;4945622;28;20035;-73
2022/12/25 14:23:53;;;;;;;0.17;0.10;;;;;;;8.08;100.00;96090.59;4944898;28;20042;-71
2022/12/25 14:26:39;;;;;;;0.10;0.10;;;;;;;8.12;100.00;96085.59;4944585;28;20039;-72
2022/12/25 14:29:30;;;;;;;0.10;0.10;;;;;;;8.09;100.00;96089.56;4946512;28;20286;-73
2022/12/25 14:32:19;;;;;;;0.20;0.20;;;;;;;8.19;100.00;96085.44;4965290;28;20056;-73
2022/12/25 14:35:06;;;;;;;0.10;0.10;;;;;;;8.21;100.00;96091.34;4968369;28;20129;-74
2022/12/25 14:37:58;;;;;;;0.10;0.10;;;;;;;8.28;100.00;96087.47;4964440;28;20247;-71
2022/12/25 14:41:17;;;;;;;0.10;0.10;;;;;;;8.32;100.00;96085.09;4966299;28;20046;-72
2022/12/25 14:44:05;;;;;;;0.20;0.20;;;;;;;8.33;100.00;96078.75;4965380;28;20056;-73
2022/12/25 14:47:21;;;;;;;0.10;0.10;;;;;;;8.33;100.00;96090.22;4968077;28;20046;-74
2022/12/25 14:50:23;;;;;;;0.13;0.13;;;;;;;8.34;100.00;96101.69;4960487;28;20727;-73
2022/12/25 14:53:21;;;;;;;0.15;0.15;;;;;;;8.27;100.00;96098.38;4968614;28;20510;-73
2022/12/25 14:56:10;;;;;;;0.10;0.10;;;;;;;8.28;100.00;96106.13;4970336;28;20034;-72
2022/12/25 14:58:58;;;;;;;0.20;0.20;;;;;;;8.26;100.00;96107.41;4968079;28;20066;-74
2022/12/25 15:01:49;;;;;;;0.10;0.10;;;;;;;8.27;100.00;96109.03;4955229;28;20436;-74
2022/12/25 15:04:35;;;;;;;0.20;0.20;;;;;;;8.17;100.00;96104.34;4948593;28;20042;-76
2022/12/25 15:07:30;;;;;;;0.10;0.10;;;;;;;8.25;100.00;96111.13;4947962;28;20502;-75